Terminal Aerodrome Forecast
Issued by NWS

Home | Current Version | Previous Version | Text Only | Print | Product List | Glossary On
Versions: 1 2 3 4 5 6 7 8 9 10 11 12
000
FTUS44 KLZK 281100
TAFADF
TAF
KADF 281134Z 2812/2912 04005KT P6SM SKC
     FM281800 18009KT P6SM SCT250
     FM290000 15004KT P6SM SCT250 WS020/20035KT
     FM290900 26004KT P6SM SCT250 WS020/24045KT=

USA.gov is the U.S. government's official web portal to all federal, state and local government web resources and services.